sensor_id;sensor_type;location;lat;lon;timestamp;temperature;humidity
25973;DHT22;13765;51.166;4.466;2023-05-10T00:00:20;14.20;99.90
25973;DHT22;13765;51.166;4.466;2023-05-10T00:02:47;14.10;99.90
25973;DHT22;13765;51.166;4.466;2023-05-10T00:05:14;14.20;99.90
25973;DHT22;13765;51.166;4.466;2023-05-10T00:07:44;14.00;99.90
25973;DHT22;13765;51.166;4.466;2023-05-10T00:10:12;14.00;99.90
25973;DHT22;13765;51.166;4.466;2023-05-10T00:12:38;14.00;99.90
25973;DHT22;13765;51.166;4.466;2023-05-10T00:15:06;14.00;99.90
25973;DHT22;13765;51.166;4.466;2023-05-10T00:17:35;14.00;99.90
25973;DHT22;13765;51.166;4.466;2023-05-10T00:20:00;14.10;99.90
25973;DHT22;13765;51.166;4.466;2023-05-10T00:22:26;14.00;99.90
25973;DHT22;13765;51.166;4.466;2023-05-10T00:24:52;14.10;99.90
25973;DHT22;13765;51.166;4.466;2023-05-10T00:27:17;14.00;99.90
25973;DHT22;13765;51.166;4.466;2023-05-10T00:29:45;14.00;99.90
25973;DHT22;13765;51.166;4.466;2023-05-10T00:32:13;14.00;99.90
25973;DHT22;13765;51.166;4.466;2023-05-10T00:34:41;14.10;99.90
25973;DHT22;13765;51.166;4.466;2023-05-10T00:37:07;14.00;99.90
25973;DHT22;13765;51.166;4.466;2023-05-10T00:39:35;14.00;99.90
25973;DHT22;13765;51.166;4.466;2023-05-10T00:42:00;14.00;99.90
25973;DHT22;13765;51.166;4.466;2023-05-10T00:44:26;14.00;99.90
25973;DHT22;13765;51.166;4.466;2023-05-10T00:46:52;13.90;99.90
25973;DHT22;13765;51.166;4.466;2023-05-10T00:49:21;14.00;99.90
25973;DHT22;13765;51.166;4.466;2023-05-10T00:51:49;13.90;99.90
25973;DHT22;13765;51.166;4.466;2023-05-10T00:54:15;13.90;99.90
25973;DHT22;13765;51.166;4.466;2023-05-10T00:56:43;14.00;99.90
25973;DHT22;13765;51.166;4.466;2023-05-10T00:59:19;14.00;99.90
25973;DHT22;13765;51.166;4.466;2023-05-10T01:01:46;14.00;99.90
25973;DHT22;13765;51.166;4.466;2023-05-10T01:04:15;13.90;99.90
25973;DHT22;13765;51.166;4.466;2023-05-10T01:06:41;13.80;99.90
25973;DHT22;13765;51.166;4.466;2023-05-10T01:09:07;13.90;99.90
25973;DHT22;13765;51.166;4.466;2023-05-10T01:11:35;13.90;99.90
25973;DHT22;13765;51.166;4.466;2023-05-10T01:14:04;13.90;99.90
25973;DHT22;13765;51.166;4.466;2023-05-10T01:16:38;13.90;99.90
25973;DHT22;13765;51.166;4.466;2023-05-10T01:19:04;13.80;99.90
25973;DHT22;13765;51.166;4.466;2023-05-10T01:21:43;13.80;99.90
25973;DHT22;13765;51.166;4.466;2023-05-10T01:24:38;13.80;99.90
25973;DHT22;13765;51.166;4.466;2023-05-10T01:27:19;13.80;99.90
25973;DHT22;13765;51.166;4.466;2023-05-10T01:32:57;13.90;99.90
25973;DHT22;13765;51.166;4.466;2023-05-10T01:47:01;13.80;99.90
25973;DHT22;13765;51.166;4.466;2023-05-10T01:49:36;13.80;99.90
25973;DHT22;13765;51.166;4.466;2023-05-10T01:52:10;13.80;99.90
25973;DHT22;13765;51.166;4.466;2023-05-10T01:54:44;13.80;99.90
25973;DHT22;13765;51.166;4.466;2023-05-10T01:57:16;13.80;99.90
25973;DHT22;13765;51.166;4.466;2023-05-10T01:59:43;13.80;99.90
25973;DHT22;13765;51.166;4.466;2023-05-10T02:02:12;13.80;99.90
25973;DHT22;13765;51.166;4.466;2023-05-10T02:04:39;13.80;99.90
25973;DHT22;13765;51.166;4.466;2023-05-10T02:07:08;13.80;99.90
25973;DHT22;13765;51.166;4.466;2023-05-10T02:09:35;13.90;99.90
25973;DHT22;13765;51.166;4.466;2023-05-10T02:12:08;13.90;99.90
25973;DHT22;13765;51.166;4.466;2023-05-10T02:14:37;13.80;99.90
25973;DHT22;13765;51.166;4.466;2023-05-10T02:17:07;13.80;99.90
25973;DHT22;13765;51.166;4.466;2023-05-10T02:19:37;13.80;99.90
25973;DHT22;13765;51.166;4.466;2023-05-10T02:22:04;13.80;99.90
25973;DHT22;13765;51.166;4.466;2023-05-10T02:24:30;13.80;99.90
25973;DHT22;13765;51.166;4.466;2023-05-10T02:26:59;13.70;99.90
25973;DHT22;13765;51.166;4.466;2023-05-10T02:29:27;13.80;99.90
25973;DHT22;13765;51.166;4.466;2023-05-10T02:31:54;13.80;99.90
25973;DHT22;13765;51.166;4.466;2023-05-10T02:34:22;13.80;99.90
25973;DHT22;13765;51.166;4.466;2023-05-10T02:36:54;13.90;99.90
25973;DHT22;13765;51.166;4.466;2023-05-10T02:39:21;14.00;99.90
25973;DHT22;13765;51.166;4.466;2023-05-10T02:41:48;14.00;99.90
25973;DHT22;13765;51.166;4.466;2023-05-10T02:44:20;13.90;99.90
25973;DHT22;13765;51.166;4.466;2023-05-10T02:46:49;13.90;99.90
25973;DHT22;13765;51.166;4.466;2023-05-10T02:49:15;13.90;99.90
25973;DHT22;13765;51.166;4.466;2023-05-10T02:51:44;13.90;99.90
25973;DHT22;13765;51.166;4.466;2023-05-10T02:54:15;13.80;99.90
25973;DHT22;13765;51.166;4.466;2023-05-10T02:56:47;13.80;99.90
25973;DHT22;13765;51.166;4.466;2023-05-10T02:59:21;13.60;99.90
25973;DHT22;13765;51.166;4.466;2023-05-10T03:01:47;13.50;99.90
25973;DHT22;13765;51.166;4.466;2023-05-10T03:04:14;13.50;99.90
25973;DHT22;13765;51.166;4.466;2023-05-10T03:06:43;13.60;99.90
25973;DHT22;13765;51.166;4.466;2023-05-10T03:09:10;13.50;99.90
25973;DHT22;13765;51.166;4.466;2023-05-10T03:11:58;13.50;99.90
25973;DHT22;13765;51.166;4.466;2023-05-10T03:19:26;13.60;99.90
25973;DHT22;13765;51.166;4.466;2023-05-10T03:22:04;13.60;99.90
25973;DHT22;13765;51.166;4.466;2023-05-10T03:24:35;13.50;99.90
25973;DHT22;13765;51.166;4.466;2023-05-10T03:27:02;13.40;99.90
25973;DHT22;13765;51.166;4.466;2023-05-10T03:29:29;13.40;99.90
25973;DHT22;13765;51.166;4.466;2023-05-10T03:31:58;13.40;99.90
25973;DHT22;13765;51.166;4.466;2023-05-10T03:34:24;13.50;99.90
25973;DHT22;13765;51.166;4.466;2023-05-10T03:36:50;13.40;99.90
25973;DHT22;13765;51.166;4.466;2023-05-10T03:39:18;13.50;99.90
25973;DHT22;13765;51.166;4.466;2023-05-10T03:41:44;13.50;99.90
25973;DHT22;13765;51.166;4.466;2023-05-10T03:44:10;13.50;99.90
25973;DHT22;13765;51.166;4.466;2023-05-10T03:46:36;13.40;99.90
25973;DHT22;13765;51.166;4.466;2023-05-10T03:49:01;13.40;99.90
25973;DHT22;13765;51.166;4.466;2023-05-10T03:51:27;13.30;99.90
25973;DHT22;13765;51.166;4.466;2023-05-10T03:53:56;13.30;99.90
25973;DHT22;13765;51.166;4.466;2023-05-10T03:56:21;13.20;99.90
25973;DHT22;13765;51.166;4.466;2023-05-10T03:58:47;13.30;99.90
25973;DHT22;13765;51.166;4.466;2023-05-10T04:01:15;13.40;99.90
25973;DHT22;13765;51.166;4.466;2023-05-10T04:03:40;13.40;99.90
25973;DHT22;13765;51.166;4.466;2023-05-10T04:06:08;13.30;99.90
25973;DHT22;13765;51.166;4.466;2023-05-10T04:08:39;13.30;99.90
25973;DHT22;13765;51.166;4.466;2023-05-10T04:11:09;13.30;99.90
25973;DHT22;13765;51.166;4.466;2023-05-10T04:13:38;13.30;99.90
25973;DHT22;13765;51.166;4.466;2023-05-10T04:16:04;13.30;99.90
25973;DHT22;13765;51.166;4.466;2023-05-10T04:18:30;13.40;99.90
25973;DHT22;13765;51.166;4.466;2023-05-10T04:20:58;13.40;99.90
25973;DHT22;13765;51.166;4.466;2023-05-10T04:23:23;13.50;99.90
25973;DHT22;13765;51.166;4.466;2023-05-10T04:25:49;13.50;99.90
25973;DHT22;13765;51.166;4.466;2023-05-10T04:28:15;13.50;99.90
25973;DHT22;13765;51.166;4.466;2023-05-10T04:30:40;13.50;99.90
25973;DHT22;13765;51.166;4.466;2023-05-10T04:33:06;13.50;99.90
25973;DHT22;13765;51.166;4.466;2023-05-10T04:35:32;13.50;99.90
25973;DHT22;13765;51.166;4.466;2023-05-10T04:37:58;13.40;99.90
25973;DHT22;13765;51.166;4.466;2023-05-10T04:40:23;13.50;99.90
25973;DHT22;13765;51.166;4.466;2023-05-10T04:42:49;13.50;99.90
25973;DHT22;13765;51.166;4.466;2023-05-10T04:45:15;13.60;99.90
25973;DHT22;13765;51.166;4.466;2023-05-10T04:47:42;13.50;99.90
25973;DHT22;13765;51.166;4.466;2023-05-10T04:50:08;13.50;99.90
25973;DHT22;13765;51.166;4.466;2023-05-10T04:52:34;13.40;99.90
25973;DHT22;13765;51.166;4.466;2023-05-10T04:55:00;13.40;99.90
25973;DHT22;13765;51.166;4.466;2023-05-10T04:57:26;13.40;99.90
25973;DHT22;13765;51.166;4.466;2023-05-10T04:59:51;13.50;99.90
25973;DHT22;13765;51.166;4.466;2023-05-10T05:02:17;13.50;99.90
25973;DHT22;13765;51.166;4.466;2023-05-10T05:04:43;13.60;99.90
25973;DHT22;13765;51.166;4.466;2023-05-10T05:07:08;13.70;99.90
25973;DHT22;13765;51.166;4.466;2023-05-10T05:09:37;13.70;99.90
25973;DHT22;13765;51.166;4.466;2023-05-10T05:12:05;13.70;99.90
25973;DHT22;13765;51.166;4.466;2023-05-10T05:14:33;13.70;99.90
25973;DHT22;13765;51.166;4.466;2023-05-10T05:16:58;13.60;99.90
25973;DHT22;13765;51.166;4.466;2023-05-10T05:19:24;13.70;99.90
25973;DHT22;13765;51.166;4.466;2023-05-10T05:21:49;13.70;99.90
25973;DHT22;13765;51.166;4.466;2023-05-10T05:24:18;13.80;99.90
25973;DHT22;13765;51.166;4.466;2023-05-10T05:26:46;13.90;99.90
25973;DHT22;13765;51.166;4.466;2023-05-10T05:29:14;13.90;99.90
25973;DHT22;13765;51.166;4.466;2023-05-10T05:31:42;14.00;99.90
25973;DHT22;13765;51.166;4.466;2023-05-10T05:34:08;14.00;99.90
25973;DHT22;13765;51.166;4.466;2023-05-10T05:36:36;14.00;99.90
25973;DHT22;13765;51.166;4.466;2023-05-10T05:39:03;14.10;99.90
25973;DHT22;13765;51.166;4.466;2023-05-10T05:41:29;14.20;99.90
25973;DHT22;13765;51.166;4.466;2023-05-10T05:43:57;14.20;99.90
25973;DHT22;13765;51.166;4.466;2023-05-10T05:46:27;14.30;99.90
25973;DHT22;13765;51.166;4.466;2023-05-10T05:48:53;14.40;99.90
25973;DHT22;13765;51.166;4.466;2023-05-10T05:51:19;14.40;99.90
25973;DHT22;13765;51.166;4.466;2023-05-10T05:53:45;14.40;99.90
25973;DHT22;13765;51.166;4.466;2023-05-10T05:56:11;14.50;99.90
25973;DHT22;13765;51.166;4.466;2023-05-10T05:58:36;14.50;99.90
25973;DHT22;13765;51.166;4.466;2023-05-10T06:01:05;14.60;99.90
25973;DHT22;13765;51.166;4.466;2023-05-10T06:03:30;14.60;99.90
25973;DHT22;13765;51.166;4.466;2023-05-10T06:05:58;14.70;99.90
25973;DHT22;13765;51.166;4.466;2023-05-10T06:08:24;14.80;99.90
25973;DHT22;13765;51.166;4.466;2023-05-10T06:10:49;14.90;99.90
25973;DHT22;13765;51.166;4.466;2023-05-10T06:13:15;14.90;99.90
25973;DHT22;13765;51.166;4.466;2023-05-10T06:15:41;15.00;99.90
25973;DHT22;13765;51.166;4.466;2023-05-10T06:18:06;15.10;99.90
25973;DHT22;13765;51.166;4.466;2023-05-10T06:20:32;15.20;99.90
25973;DHT22;13765;51.166;4.466;2023-05-10T06:23:00;15.20;99.90
25973;DHT22;13765;51.166;4.466;2023-05-10T06:25:26;15.20;99.90
25973;DHT22;13765;51.166;4.466;2023-05-10T06:27:51;15.20;99.90
25973;DHT22;13765;51.166;4.466;2023-05-10T06:30:24;15.20;99.90
25973;DHT22;13765;51.166;4.466;2023-05-10T06:32:56;15.20;99.90
25973;DHT22;13765;51.166;4.466;2023-05-10T06:35:21;15.20;99.90
25973;DHT22;13765;51.166;4.466;2023-05-10T06:37:47;15.30;99.90
25973;DHT22;13765;51.166;4.466;2023-05-10T06:40:13;15.30;99.90
25973;DHT22;13765;51.166;4.466;2023-05-10T06:42:38;15.20;99.90
25973;DHT22;13765;51.166;4.466;2023-05-10T06:45:04;15.30;99.90
25973;DHT22;13765;51.166;4.466;2023-05-10T06:47:30;15.20;99.90
25973;DHT22;13765;51.166;4.466;2023-05-10T06:49:58;15.20;99.90
25973;DHT22;13765;51.166;4.466;2023-05-10T06:52:24;15.30;99.90
25973;DHT22;13765;51.166;4.466;2023-05-10T06:54:52;15.20;99.90
25973;DHT22;13765;51.166;4.466;2023-05-10T06:57:20;15.30;99.90
25973;DHT22;13765;51.166;4.466;2023-05-10T06:59:46;15.20;99.90
25973;DHT22;13765;51.166;4.466;2023-05-10T07:02:12;15.20;99.90
25973;DHT22;13765;51.166;4.466;2023-05-10T07:04:38;15.20;99.90
25973;DHT22;13765;51.166;4.466;2023-05-10T07:07:06;15.20;99.90
25973;DHT22;13765;51.166;4.466;2023-05-10T07:09:34;15.20;99.90
25973;DHT22;13765;51.166;4.466;2023-05-10T07:12:00;15.20;99.90
25973;DHT22;13765;51.166;4.466;2023-05-10T07:14:27;15.20;99.90
25973;DHT22;13765;51.166;4.466;2023-05-10T07:16:53;15.30;99.90
25973;DHT22;13765;51.166;4.466;2023-05-10T07:19:21;15.30;99.90
25973;DHT22;13765;51.166;4.466;2023-05-10T07:21:47;15.30;99.90
25973;DHT22;13765;51.166;4.466;2023-05-10T07:24:13;15.30;99.90
25973;DHT22;13765;51.166;4.466;2023-05-10T07:26:43;15.30;99.90
25973;DHT22;13765;51.166;4.466;2023-05-10T07:29:12;15.40;99.90
25973;DHT22;13765;51.166;4.466;2023-05-10T07:31:37;15.50;99.90
25973;DHT22;13765;51.166;4.466;2023-05-10T07:34:03;15.50;99.90
25973;DHT22;13765;51.166;4.466;2023-05-10T07:36:31;15.50;99.90
25973;DHT22;13765;51.166;4.466;2023-05-10T07:38:59;15.60;99.90
25973;DHT22;13765;51.166;4.466;2023-05-10T07:41:24;15.80;99.90
25973;DHT22;13765;51.166;4.466;2023-05-10T07:43:55;16.00;99.90
25973;DHT22;13765;51.166;4.466;2023-05-10T07:46:20;16.30;99.90
25973;DHT22;13765;51.166;4.466;2023-05-10T07:48:48;16.30;99.90
25973;DHT22;13765;51.166;4.466;2023-05-10T07:51:16;16.50;99.90
25973;DHT22;13765;51.166;4.466;2023-05-10T07:53:44;16.60;99.90
25973;DHT22;13765;51.166;4.466;2023-05-10T07:56:25;16.70;99.90
25973;DHT22;13765;51.166;4.466;2023-05-10T07:58:53;16.70;99.90
25973;DHT22;13765;51.166;4.466;2023-05-10T08:01:19;16.60;99.90
25973;DHT22;13765;51.166;4.466;2023-05-10T08:03:47;16.50;99.90
25973;DHT22;13765;51.166;4.466;2023-05-10T08:06:17;16.40;99.90
25973;DHT22;13765;51.166;4.466;2023-05-10T08:08:43;16.40;99.90
25973;DHT22;13765;51.166;4.466;2023-05-10T08:11:15;16.30;99.90
25973;DHT22;13765;51.166;4.466;2023-05-10T08:13:40;16.50;99.90
25973;DHT22;13765;51.166;4.466;2023-05-10T08:16:08;16.80;99.90
25973;DHT22;13765;51.166;4.466;2023-05-10T08:18:39;17.30;99.90
25973;DHT22;13765;51.166;4.466;2023-05-10T08:21:07;17.40;99.90
25973;DHT22;13765;51.166;4.466;2023-05-10T08:23:33;17.80;99.90
25973;DHT22;13765;51.166;4.466;2023-05-10T08:25:59;18.00;99.90
25973;DHT22;13765;51.166;4.466;2023-05-10T08:28:25;18.10;99.90
25973;DHT22;13765;51.166;4.466;2023-05-10T08:30:53;18.00;99.90
25973;DHT22;13765;51.166;4.466;2023-05-10T08:33:19;18.30;99.90
25973;DHT22;13765;51.166;4.466;2023-05-10T08:35:44;18.50;99.90
25973;DHT22;13765;51.166;4.466;2023-05-10T08:38:10;18.60;99.90
25973;DHT22;13765;51.166;4.466;2023-05-10T08:40:42;18.40;99.90
25973;DHT22;13765;51.166;4.466;2023-05-10T08:43:10;18.10;99.90
25973;DHT22;13765;51.166;4.466;2023-05-10T08:45:44;17.90;99.90
25973;DHT22;13765;51.166;4.466;2023-05-10T08:48:14;17.70;99.90
25973;DHT22;13765;51.166;4.466;2023-05-10T08:50:44;17.50;99.90
25973;DHT22;13765;51.166;4.466;2023-05-10T08:53:13;17.60;99.90
25973;DHT22;13765;51.166;4.466;2023-05-10T08:55:42;17.40;99.90
25973;DHT22;13765;51.166;4.466;2023-05-10T08:58:09;17.70;99.90
25973;DHT22;13765;51.166;4.466;2023-05-10T09:00:37;17.60;99.90
25973;DHT22;13765;51.166;4.466;2023-05-10T09:03:05;17.60;99.90
25973;DHT22;13765;51.166;4.466;2023-05-10T09:05:32;17.50;99.90
25973;DHT22;13765;51.166;4.466;2023-05-10T09:08:00;17.30;99.90
25973;DHT22;13765;51.166;4.466;2023-05-10T09:10:29;17.20;99.90
25973;DHT22;13765;51.166;4.466;2023-05-10T09:12:58;16.90;99.90
25973;DHT22;13765;51.166;4.466;2023-05-10T09:15:24;16.90;99.90
25973;DHT22;13765;51.166;4.466;2023-05-10T09:17:52;17.20;99.90
25973;DHT22;13765;51.166;4.466;2023-05-10T09:20:20;17.30;99.90
25973;DHT22;13765;51.166;4.466;2023-05-10T09:22:45;17.40;99.90
25973;DHT22;13765;51.166;4.466;2023-05-10T09:25:15;17.30;99.90
25973;DHT22;13765;51.166;4.466;2023-05-10T09:27:44;17.10;99.90
25973;DHT22;13765;51.166;4.466;2023-05-10T09:30:14;16.90;99.90
25973;DHT22;13765;51.166;4.466;2023-05-10T09:32:44;16.80;99.90
25973;DHT22;13765;51.166;4.466;2023-05-10T09:35:15;16.60;99.90
25973;DHT22;13765;51.166;4.466;2023-05-10T09:37:47;16.40;99.90
25973;DHT22;13765;51.166;4.466;2023-05-10T09:40:20;16.20;99.90
25973;DHT22;13765;51.166;4.466;2023-05-10T09:42:57;16.10;99.90
25973;DHT22;13765;51.166;4.466;2023-05-10T09:45:27;16.10;99.90
25973;DHT22;13765;51.166;4.466;2023-05-10T09:47:59;16.10;99.90
25973;DHT22;13765;51.166;4.466;2023-05-10T09:50:28;16.10;99.90
25973;DHT22;13765;51.166;4.466;2023-05-10T09:52:56;16.20;99.90
25973;DHT22;13765;51.166;4.466;2023-05-10T09:58:01;16.40;99.90
25973;DHT22;13765;51.166;4.466;2023-05-10T10:00:28;16.10;99.90
25973;DHT22;13765;51.166;4.466;2023-05-10T10:03:03;16.00;99.90
25973;DHT22;13765;51.166;4.466;2023-05-10T10:05:35;15.80;99.90
25973;DHT22;13765;51.166;4.466;2023-05-10T10:08:07;15.60;99.90
25973;DHT22;13765;51.166;4.466;2023-05-10T10:10:33;15.50;99.90
25973;DHT22;13765;51.166;4.466;2023-05-10T10:13:02;15.40;99.90
25973;DHT22;13765;51.166;4.466;2023-05-10T10:15:34;15.40;99.90
25973;DHT22;13765;51.166;4.466;2023-05-10T10:18:00;15.60;99.90
25973;DHT22;13765;51.166;4.466;2023-05-10T10:20:29;15.80;99.90
25973;DHT22;13765;51.166;4.466;2023-05-10T10:22:54;16.50;99.90
25973;DHT22;13765;51.166;4.466;2023-05-10T10:25:21;17.30;99.90
25973;DHT22;13765;51.166;4.466;2023-05-10T10:30:43;18.10;99.90
25973;DHT22;13765;51.166;4.466;2023-05-10T10:35:52;18.10;99.90
25973;DHT22;13765;51.166;4.466;2023-05-10T10:38:18;17.90;99.90
25973;DHT22;13765;51.166;4.466;2023-05-10T10:40:44;17.80;99.90
25973;DHT22;13765;51.166;4.466;2023-05-10T10:43:29;17.50;99.90
25973;DHT22;13765;51.166;4.466;2023-05-10T10:46:14;17.50;99.90
25973;DHT22;13765;51.166;4.466;2023-05-10T10:49:08;17.50;99.90
25973;DHT22;13765;51.166;4.466;2023-05-10T10:57:29;17.40;99.90
25973;DHT22;13765;51.166;4.466;2023-05-10T11:02:50;17.40;99.90
25973;DHT22;13765;51.166;4.466;2023-05-10T11:08:26;17.00;99.90
25973;DHT22;13765;51.166;4.466;2023-05-10T11:13:46;16.50;99.90
25973;DHT22;13765;51.166;4.466;2023-05-10T11:16:25;16.10;99.90
25973;DHT22;13765;51.166;4.466;2023-05-10T11:19:11;16.00;99.90
25973;DHT22;13765;51.166;4.466;2023-05-10T11:24:31;15.80;99.90
25973;DHT22;13765;51.166;4.466;2023-05-10T11:26:58;15.90;99.90
25973;DHT22;13765;51.166;4.466;2023-05-10T11:29:24;15.70;99.90
25973;DHT22;13765;51.166;4.466;2023-05-10T11:31:51;15.70;99.90
25973;DHT22;13765;51.166;4.466;2023-05-10T11:34:46;15.70;99.90
25973;DHT22;13765;51.166;4.466;2023-05-10T11:37:15;15.70;99.90
25973;DHT22;13765;51.166;4.466;2023-05-10T11:39:45;15.60;99.90
25973;DHT22;13765;51.166;4.466;2023-05-10T11:42:12;15.60;99.90
25973;DHT22;13765;51.166;4.466;2023-05-10T11:44:38;15.50;99.90
25973;DHT22;13765;51.166;4.466;2023-05-10T11:47:05;15.40;99.90
25973;DHT22;13765;51.166;4.466;2023-05-10T11:49:35;15.50;99.90
25973;DHT22;13765;51.166;4.466;2023-05-10T11:52:08;15.50;99.90
25973;DHT22;13765;51.166;4.466;2023-05-10T11:54:34;15.40;99.90
25973;DHT22;13765;51.166;4.466;2023-05-10T11:57:03;15.40;99.90
25973;DHT22;13765;51.166;4.466;2023-05-10T11:59:29;15.50;99.90
25973;DHT22;13765;51.166;4.466;2023-05-10T12:01:55;15.50;99.90
25973;DHT22;13765;51.166;4.466;2023-05-10T12:04:21;15.60;99.90
25973;DHT22;13765;51.166;4.466;2023-05-10T12:06:49;15.60;99.90
25973;DHT22;13765;51.166;4.466;2023-05-10T12:09:17;15.70;99.90
25973;DHT22;13765;51.166;4.466;2023-05-10T12:11:42;15.80;99.90
25973;DHT22;13765;51.166;4.466;2023-05-10T12:14:08;15.90;99.90
25973;DHT22;13765;51.166;4.466;2023-05-10T12:16:38;16.00;99.90
25973;DHT22;13765;51.166;4.466;2023-05-10T12:19:04;16.10;99.90
25973;DHT22;13765;51.166;4.466;2023-05-10T12:21:30;16.20;99.90
25973;DHT22;13765;51.166;4.466;2023-05-10T12:24:03;16.20;99.90
25973;DHT22;13765;51.166;4.466;2023-05-10T12:26:30;16.30;99.90
25973;DHT22;13765;51.166;4.466;2023-05-10T12:29:15;16.40;99.90
25973;DHT22;13765;51.166;4.466;2023-05-10T12:31:58;16.40;99.90
25973;DHT22;13765;51.166;4.466;2023-05-10T12:34:34;16.40;99.90
25973;DHT22;13765;51.166;4.466;2023-05-10T12:37:03;16.30;99.90
25973;DHT22;13765;51.166;4.466;2023-05-10T12:39:44;16.20;99.90
25973;DHT22;13765;51.166;4.466;2023-05-10T12:42:10;16.30;99.90
25973;DHT22;13765;51.166;4.466;2023-05-10T12:44:36;16.40;99.90
25973;DHT22;13765;51.166;4.466;2023-05-10T12:47:06;16.50;99.90
25973;DHT22;13765;51.166;4.466;2023-05-10T12:49:36;16.50;99.90
25973;DHT22;13765;51.166;4.466;2023-05-10T12:52:04;16.50;99.90
25973;DHT22;13765;51.166;4.466;2023-05-10T12:54:35;16.60;99.90
25973;DHT22;13765;51.166;4.466;2023-05-10T12:57:01;16.80;99.90
25973;DHT22;13765;51.166;4.466;2023-05-10T12:59:26;16.80;99.90
25973;DHT22;13765;51.166;4.466;2023-05-10T13:01:52;16.80;99.90
25973;DHT22;13765;51.166;4.466;2023-05-10T13:04:24;16.90;99.90
25973;DHT22;13765;51.166;4.466;2023-05-10T13:06:50;16.80;99.90
25973;DHT22;13765;51.166;4.466;2023-05-10T13:09:18;16.80;99.90
25973;DHT22;13765;51.166;4.466;2023-05-10T13:11:44;16.90;99.90
25973;DHT22;13765;51.166;4.466;2023-05-10T13:14:10;16.90;99.90
25973;DHT22;13765;51.166;4.466;2023-05-10T13:16:38;16.90;99.90
25973;DHT22;13765;51.166;4.466;2023-05-10T13:19:04;16.90;99.90
25973;DHT22;13765;51.166;4.466;2023-05-10T13:21:30;16.80;99.90
25973;DHT22;13765;51.166;4.466;2023-05-10T13:24:00;16.80;99.90
25973;DHT22;13765;51.166;4.466;2023-05-10T13:26:29;16.90;99.90
25973;DHT22;13765;51.166;4.466;2023-05-10T13:28:54;16.90;99.90
25973;DHT22;13765;51.166;4.466;2023-05-10T13:31:21;16.80;99.90
25973;DHT22;13765;51.166;4.466;2023-05-10T13:33:46;16.70;99.90
25973;DHT22;13765;51.166;4.466;2023-05-10T13:36:14;16.70;99.90
25973;DHT22;13765;51.166;4.466;2023-05-10T13:38:40;16.70;99.90
25973;DHT22;13765;51.166;4.466;2023-05-10T13:41:06;16.60;99.90
25973;DHT22;13765;51.166;4.466;2023-05-10T13:43:34;16.40;99.90
25973;DHT22;13765;51.166;4.466;2023-05-10T13:46:00;16.40;99.90
25973;DHT22;13765;51.166;4.466;2023-05-10T13:48:26;16.50;99.90
25973;DHT22;13765;51.166;4.466;2023-05-10T13:50:54;16.60;99.90
25973;DHT22;13765;51.166;4.466;2023-05-10T13:53:20;16.60;99.90
25973;DHT22;13765;51.166;4.466;2023-05-10T13:55:46;16.60;99.90
25973;DHT22;13765;51.166;4.466;2023-05-10T13:58:14;16.60;99.90
25973;DHT22;13765;51.166;4.466;2023-05-10T14:00:40;16.70;99.90
25973;DHT22;13765;51.166;4.466;2023-05-10T14:03:06;16.60;99.90
25973;DHT22;13765;51.166;4.466;2023-05-10T14:05:36;16.60;99.90
25973;DHT22;13765;51.166;4.466;2023-05-10T14:08:01;16.60;99.90
25973;DHT22;13765;51.166;4.466;2023-05-10T14:10:29;16.40;99.90
25973;DHT22;13765;51.166;4.466;2023-05-10T14:12:57;16.40;99.90
25973;DHT22;13765;51.166;4.466;2023-05-10T14:15:25;16.50;99.90
25973;DHT22;13765;51.166;4.466;2023-05-10T14:17:53;16.50;99.90
25973;DHT22;13765;51.166;4.466;2023-05-10T14:20:19;16.60;99.90
25973;DHT22;13765;51.166;4.466;2023-05-10T14:22:45;16.60;99.90
25973;DHT22;13765;51.166;4.466;2023-05-10T14:25:10;16.60;99.90
25973;DHT22;13765;51.166;4.466;2023-05-10T14:27:36;16.70;99.90
25973;DHT22;13765;51.166;4.466;2023-05-10T14:30:02;16.70;99.90
25973;DHT22;13765;51.166;4.466;2023-05-10T14:32:28;16.80;99.90
25973;DHT22;13765;51.166;4.466;2023-05-10T14:34:58;16.90;99.90
25973;DHT22;13765;51.166;4.466;2023-05-10T14:37:26;16.80;99.90
25973;DHT22;13765;51.166;4.466;2023-05-10T14:39:54;16.90;99.90
25973;DHT22;13765;51.166;4.466;2023-05-10T14:42:19;17.00;99.90
25973;DHT22;13765;51.166;4.466;2023-05-10T14:44:50;17.00;99.90
25973;DHT22;13765;51.166;4.466;2023-05-10T14:47:16;17.10;99.90
25973;DHT22;13765;51.166;4.466;2023-05-10T14:49:41;17.20;99.90
25973;DHT22;13765;51.166;4.466;2023-05-10T14:52:07;17.20;99.90
25973;DHT22;13765;51.166;4.466;2023-05-10T14:54:33;17.30;99.90
25973;DHT22;13765;51.166;4.466;2023-05-10T14:56:59;17.40;99.90
25973;DHT22;13765;51.166;4.466;2023-05-10T14:59:25;17.20;99.90
25973;DHT22;13765;51.166;4.466;2023-05-10T15:01:51;17.30;99.90
25973;DHT22;13765;51.166;4.466;2023-05-10T15:04:19;17.30;99.90
25973;DHT22;13765;51.166;4.466;2023-05-10T15:06:44;17.00;99.90
25973;DHT22;13765;51.166;4.466;2023-05-10T15:09:13;16.70;99.90
25973;DHT22;13765;51.166;4.466;2023-05-10T15:11:38;16.50;99.90
25973;DHT22;13765;51.166;4.466;2023-05-10T15:14:06;16.10;99.90
25973;DHT22;13765;51.166;4.466;2023-05-10T15:16:32;16.00;99.90
25973;DHT22;13765;51.166;4.466;2023-05-10T15:19:00;15.90;99.90
25973;DHT22;13765;51.166;4.466;2023-05-10T15:21:26;16.00;99.90
25973;DHT22;13765;51.166;4.466;2023-05-10T15:23:56;16.00;99.90
25973;DHT22;13765;51.166;4.466;2023-05-10T15:26:24;15.80;99.90
25973;DHT22;13765;51.166;4.466;2023-05-10T15:28:51;15.50;99.90
25973;DHT22;13765;51.166;4.466;2023-05-10T15:31:17;15.50;99.90
25973;DHT22;13765;51.166;4.466;2023-05-10T15:33:44;15.50;99.90
25973;DHT22;13765;51.166;4.466;2023-05-10T15:36:17;15.50;99.90
25973;DHT22;13765;51.166;4.466;2023-05-10T15:38:43;15.50;99.90
25973;DHT22;13765;51.166;4.466;2023-05-10T15:41:11;15.60;99.90
25973;DHT22;13765;51.166;4.466;2023-05-10T15:43:37;15.80;99.90
25973;DHT22;13765;51.166;4.466;2023-05-10T15:46:05;15.90;99.90
25973;DHT22;13765;51.166;4.466;2023-05-10T15:48:33;16.10;99.90
25973;DHT22;13765;51.166;4.466;2023-05-10T15:50:58;16.00;99.90
25973;DHT22;13765;51.166;4.466;2023-05-10T15:53:26;16.00;99.90
25973;DHT22;13765;51.166;4.466;2023-05-10T15:55:52;16.10;99.90
25973;DHT22;13765;51.166;4.466;2023-05-10T15:58:18;16.10;99.90
25973;DHT22;13765;51.166;4.466;2023-05-10T16:00:48;16.20;99.90
25973;DHT22;13765;51.166;4.466;2023-05-10T16:03:14;16.30;99.90
25973;DHT22;13765;51.166;4.466;2023-05-10T16:05:42;16.20;99.90
25973;DHT22;13765;51.166;4.466;2023-05-10T16:08:10;16.10;99.90
25973;DHT22;13765;51.166;4.466;2023-05-10T16:10:35;16.10;99.90
25973;DHT22;13765;51.166;4.466;2023-05-10T16:13:05;16.00;99.90
25973;DHT22;13765;51.166;4.466;2023-05-10T16:15:33;16.20;99.90
25973;DHT22;13765;51.166;4.466;2023-05-10T16:17:59;16.30;99.90
25973;DHT22;13765;51.166;4.466;2023-05-10T16:20:25;16.10;99.90